Flight Track Log - Related Links

Times and Time Zones

All times are in EDT time to prevent confusion due to time zone crossing. See the TRS1193 flight status page for this flight to view local times or setup timezone preferences in your user account.

Time Position Orientation Groundspeed Altitude Reporting Facility
EDT Latitude Longitude Course Direction KTS MPH feet Rate Location/Type
Thu 09:23:29 PM 33.6328 -84.4831 150° Southeast 454 522 2,500  Level Atlanta Center
Thu 09:28:29 PM 33.4556 -84.3625 67° East 333 383 11,200 1,683 Climbing Atlanta Center
Thu 09:29:29 PM 33.4936 -84.2556 30° Northeast 342 394 12,600 1,400 Climbing Atlanta Center
Thu 09:30:29 PM 33.5728 -84.2008 29° Northeast 328 377 14,000 1,800 Climbing Atlanta Center
Thu 09:31:29 PM 33.6731 -84.1336 40° Northeast 360 414 16,200 2,000 Climbing Atlanta Center
Thu 09:32:29 PM 33.7567 -84.0489 58° Northeast 381 438 18,000 1,750 Climbing Atlanta Center
Thu 09:33:29 PM 33.8192 -83.9289 57° Northeast 399 459 19,700 1,600 Climbing Atlanta Center
Thu 09:34:29 PM 33.8839 -83.8086 55° Northeast 425 489 21,200 1,667 Climbing Atlanta Center
Thu 09:36:29 PM 34.0333 -83.5525 53° Northeast 448 516 24,700 1,500 Climbing Atlanta Center
Thu 09:37:29 PM 34.1078 -83.4317 53° Northeast 448 516 25,700 1,150 Climbing Atlanta Center
Thu 09:38:29 PM 34.1844 -83.3081 51° Northeast 453 521 27,000 1,100 Climbing Atlanta Center
Thu 09:39:29 PM 34.2650 -83.1867 53° Northeast 458 527 27,900 1,100 Climbing Atlanta Center
Thu 09:41:29 PM 34.4236 -82.9308 53° Northeast 468 539 30,300 1,200 Climbing Atlanta Center
Thu 09:42:29 PM 34.4997 -82.8064 53° Northeast 463 533 31,500 1,100 Climbing Atlanta Center
Thu 09:43:29 PM 34.5778 -82.6789 54° Northeast 463 533 32,500 750 Climbing Atlanta Center
Thu 09:44:29 PM 34.6514 -82.5567 53° Northeast 453 521 33,000 227 Climbing Atlanta Center
Thu 09:45:41 PM 34.7292 -82.4314 53° Northeast 453 521 33,000  Level Atlanta Center
Thu 09:46:41 PM 34.8211 -82.2828 55° Northeast 458 527 33,000  Level Atlanta Center
Thu 09:47:41 PM 34.8942 -82.1547 52° Northeast 458 527 33,000  Level Atlanta Center
Thu 09:48:41 PM 34.9636 -82.0467 54° Northeast 453 521 33,000  Level Atlanta Center
Thu 09:49:41 PM 35.0386 -81.9206 57° Northeast 453 521 33,000  Level Atlanta Center
Thu 09:50:41 PM 35.1153 -81.7764 57° Northeast 459 528 33,000  Level Atlanta Center
Thu 09:51:41 PM 35.1858 -81.6422 57° Northeast 459 528 33,000  Level Atlanta Center
Thu 09:52:41 PM 35.2542 -81.5131 58° Northeast 464 534 33,000  Level Atlanta Center
Thu 09:53:41 PM 35.3242 -81.3761 57° Northeast 459 528 33,000  Level Atlanta Center
Thu 09:54:41 PM 35.3942 -81.2414 59° Northeast 459 528 33,000  Level Atlanta Center
Thu 09:55:41 PM 35.4619 -81.1039 57° Northeast 464 534 33,000  Level Atlanta Center
Thu 09:58:17 PM 35.6392 -80.7700 57° Northeast 464 534 33,000  Level Washington Center
Thu 09:59:17 PM 35.7097 -80.6339 58° Northeast 464 534 33,000  Level Washington Center
Thu 10:00:18 PM 35.7778 -80.5000 58° Northeast 464 534 33,000  Level Washington Center
Thu 10:01:16 PM 35.8481 -80.3633 57° Northeast 464 534 33,000  Level Washington Center
Thu 10:02:17 PM 35.9181 -80.2292 57° Northeast 464 534 33,000  Level Washington Center
Thu 10:03:18 PM 35.9947 -80.0822 57° Northeast 464 534 33,000  Level Washington Center
Thu 10:04:18 PM 36.0642 -79.9500 49° Northeast 459 528 33,000  Level Washington Center
Thu 10:05:16 PM 36.1478 -79.8311 50° Northeast 459 528 33,000 -254 Level Washington Center
Thu 10:06:16 PM 36.2225 -79.7219 49° Northeast 459 528 32,500 -744 Descending Washington Center
Thu 10:07:17 PM 36.3144 -79.5928 50° Northeast 453 521 31,500 -1,750 Descending Washington Center
Thu 10:08:16 PM 36.3978 -79.4706 48° Northeast 453 521 29,000 -1,008 Descending Washington Center
Thu 10:09:16 PM 36.4853 -79.3483 50° Northeast 458 527 29,500 -694 Climbing Washington Center
Thu 10:10:17 PM 36.5683 -79.2256 46° Northeast 464 534 27,600 -2,164 Descending Washington Center
Thu 10:11:18 PM 36.6464 -79.1231 51° Northeast 464 534 25,100 -1,289 Descending Washington Center
Thu 10:12:18 PM 36.7272 -78.9972 48° Northeast 464 534 25,000 -51 Descending Washington Center
Thu 10:13:16 PM 36.8119 -78.8789 49° Northeast 464 534 25,000  Level Washington Center
Thu 10:14:16 PM 36.8967 -78.7578 50° Northeast 464 534 25,000  Level Washington Center
Thu 10:15:18 PM 36.9878 -78.6239 49° Northeast 464 534 25,000  Level Washington Center
Thu 10:16:18 PM 37.0742 -78.4997 49° Northeast 464 534 25,000  Level Washington Center
Thu 10:17:16 PM 37.1564 -78.3803 48° Northeast 464 534 25,000  Level Washington Center
Thu 10:18:18 PM 37.2425 -78.2581 50° Northeast 464 534 25,000  Level Washington Center
Thu 10:19:18 PM 37.3244 -78.1356 33° Northeast 469 540 25,000  Level Washington Center
Thu 10:20:18 PM 37.4306 -78.0503 32° Northeast 447 514 25,000 -305 Level Washington Center
Thu 10:21:16 PM 37.5408 -77.9647 33° Northeast 453 521 24,400 -1,563 Descending Washington Center
Thu 10:22:17 PM 37.6467 -77.8789 33° Northeast 458 527 21,900 -2,479 Descending Washington Center
Thu 10:23:17 PM 37.7506 -77.7928 31° Northeast 452 520 19,400 -2,370 Descending Washington Center
Thu 10:24:16 PM 37.8522 -77.7142 34° Northeast 441 507 17,200 -2,331 Descending Washington Center
Thu 10:25:18 PM 37.9453 -77.6353 32° Northeast 424 488 14,700 -2,164 Descending Washington Center
Thu 10:26:18 PM 38.0192 -77.5764 33° Northeast 406 467 12,800 -1,850 Descending Washington Center
Thu 10:27:18 PM 38.1100 -77.5025 32° Northeast 378 435 11,000 -1,350 Descending Washington Center
Thu 10:28:18 PM 38.1797 -77.4461 16° North 330 380 10,100 -1,475 Descending Washington Center
Thu 10:29:16 PM 38.2531 -77.4189 344° North 298 343 8,100 -2,100 Descending Washington Center
Thu 10:30:18 PM 38.3217 -77.4442 336° Northwest 253 291 5,900 -1,525 Descending Washington Center
Thu 10:31:18 PM 38.3856 -77.4803 North 244 281 5,000 -450 Descending Washington Center
Thu 10:32:18 PM 38.4567 -77.4661 359° North 244 281 5,000  Level Washington Center
Thu 10:33:16 PM 38.5278 -77.4681 North 249 287 5,000  Level Washington Center
Thu 10:34:17 PM 38.6006 -77.4672 North 254 292 5,000  Level Washington Center
Thu 10:34:48 PM 38.6333 -77.4667 360° North 257 296 5,000  Level Potomac TRACON
Thu 10:35:49 PM 38.7167 -77.4667 360° North 254 292 5,000 -397 Level Potomac TRACON
Thu 10:36:49 PM 38.7833 -77.4667 360° North 246 283 4,200 -1,300 Descending Potomac TRACON
Thu 10:37:49 PM 38.8333 -77.4667 360° North 198 228 2,400 -1,300 Descending Potomac TRACON
Thu 10:38:49 PM 38.8667 -77.4667 360° North 145 167 1,600 -750 Descending Potomac TRACON
Thu 10:39:49 PM 38.9167 -77.4667 38° Northeast 136 157 900 -700 Descending Potomac TRACON
Thu 10:47:32 PM 38.9333 -77.4500 38° Northeast  Level FlightAware Approximate

Login

Don't have an account? Register now (free) for customized features, flight alerts, and more!